Data for 12/16/2014

Time Sea-Level Adjusted Pressure Absolute Pressure Temperature Relative Humidity Dew Point   
(mb) (inHg) (mb) (inHg) (C) (F) (%) (C) (F)
00:05 1020 30.12 849 25.07 -9 15.8 87 -10.8 12.5
00:10 1020 30.12 849 25.07 -8.9 15.9 86 -10.9 12.4
00:15 1020 30.12 849 25.07 -9.2 15.5 86 -11.1 12.1
00:20 1020 30.12 849 25.07 -9.1 15.7 87 -10.9 12.4
00:25 1020 30.12 849 25.07 -8.6 16.5 85 -10.7 12.8
00:30 1020 30.12 849 25.07 -8.3 17 85 -10.4 13.2
00:35 1020 30.12 849 25.07 -7.9 17.7 85 -10 13.9
00:40 1020 30.12 849 25.07 -7.8 18 83 -10.1 13.7
00:45 1020 30.12 849 25.07 -7.8 18 82 -10.4 13.2
00:50 1020 30.12 849 25.07 -8 17.6 82 -10.6 12.9
00:55 1020 30.12 849 25.07 -8 17.6 81 -10.7 12.7
01:00 1020 30.12 849 25.07 -8.4 16.9 82 -11 12.2
01:05 1019 30.09 849 25.07 -8.7 16.4 82 -11.1 11.9
01:10 1019 30.09 849 25.07 -9 15.8 84 -11.3 11.7
01:15 1019 30.09 849 25.07 -9.1 15.6 85 -11.2 11.9
01:20 1019 30.09 848 25.04 -9.1 15.7 85 -11.2 11.9
01:25 1019 30.09 848 25.04 -8.9 15.9 86 -10.9 12.4
01:30 1019 30.09 848 25.04 -8.2 17.3 84 -10.4 13.3
01:35 1019 30.09 848 25.04 -7.7 18.1 81 -10.5 13.2
01:40 1019 30.09 848 25.04 -7.6 18.3 81 -10.4 13.3
01:45 1019 30.09 848 25.04 -7.7 18.1 80 -10.6 12.9
01:50 1019 30.09 848 25.04 -8.1 17.4 79 -11.1 12.1
01:55 1019 30.09 848 25.04 -8.5 16.8 83 -10.9 12.3
02:00 1019 30.09 848 25.04 -8.3 17.1 79 -11.3 11.7
02:05 1019 30.09 848 25.04 -8.1 17.5 81 -10.8 12.6
02:10 1019 30.09 848 25.04 -8.3 17 82 -10.9 12.3
02:15 1019 30.09 848 25.04 -8.4 16.8 79 -11.4 11.5
02:20 1019 30.09 848 25.04 -8.7 16.4 81 -11.3 11.6
02:25 1019 30.09 848 25.04 -8.7 16.4 80 -11.5 11.3
02:30 1019 30.09 848 25.04 -8.8 16.1 81 -11.5 11.4
02:35 1019 30.09 848 25.04 -8.7 16.3 82 -11.3 11.6
02:40 1019 30.09 848 25.04 -8.2 17.2 82 -10.8 12.6
02:45 1019 30.09 848 25.04 -8 17.5 82 -10.6 12.9
02:50 1019 30.09 848 25.04 -7.9 17.9 81 -10.6 12.9
02:55 1019 30.09 848 25.04 -7.7 18.1 81 -10.5 13.2
03:00 1019 30.09 848 25.04 -7.8 18 81 -10.5 13.1
03:05 1019 30.09 848 25.04 -7.8 18 80 -10.7 12.8
03:10 1019 30.09 848 25.04 -7.9 17.8 81 -10.7 12.8
03:15 1019 30.09 848 25.04 -8 17.7 80 -10.8 12.6
03:20 1019 30.09 848 25.04 -8.2 17.3 79 -11.2 11.9
03:25 1019 30.09 848 25.04 -8.7 16.3 82 -11.3 11.7
03:30 1019 30.09 848 25.04 -9 15.7 84 -11.3 11.7
03:35 1019 30.09 848 25.04 -8.8 16.1 84 -11.1 12
03:40 1019 30.09 848 25.04 -9 15.8 85 -11.2 11.9
03:45 1019 30.09 848 25.04 -9.2 15.4 83 -11.6 11.2
03:50 1019 30.09 848 25.04 -9.5 14.9 83 -11.9 10.6
03:55 1019 30.09 848 25.04 -9.7 14.5 87 -11.5 11.2
04:00 1019 30.09 848 25.04 -9.5 15 84 -11.7 11
04:05 1019 30.09 848 25.04 -9.4 15.2 84 -11.6 11
04:10 1019 30.09 848 25.04 -9.4 15.1 84 -11.7 11
04:15 1018 30.06 848 25.04 -9.3 15.2 83 -11.7 10.9
04:20 1018 30.06 848 25.04 -9.5 15 82 -11.9 10.5
04:25 1018 30.06 847 25.01 -9.9 14.1 85 -12 10.3
04:30 1018 30.06 847 25.01 -9.6 14.7 85 -11.7 10.9
04:35 1018 30.06 847 25.01 -9.3 15.4 84 -11.4 11.4
04:40 1018 30.06 847 25.01 -9 15.8 84 -11.2 11.8
04:45 1018 30.06 847 25.01 -8.8 16.2 83 -11.1 12
04:50 1018 30.06 847 25.01 -8.6 16.4 83 -11.1 12
04:55 1018 30.06 847 25.01 -8.6 16.6 80 -11.4 11.5
05:00 1018 30.06 847 25.01 -8.7 16.3 83 -11.1 12
05:05 1018 30.06 847 25.01 -8.4 16.9 80 -11.2 11.8
05:10 1018 30.06 847 25.01 -8.4 16.9 81 -11.2 11.9
05:15 1018 30.06 847 25.01 -8.5 16.7 80 -11.4 11.5
05:20 1018 30.06 847 25.01 -8.7 16.4 82 -11.3 11.7
05:25 1018 30.06 847 25.01 -8.6 16.5 81 -11.3 11.6
05:30 1018 30.06 847 25.01 -8.8 16.1 82 -11.5 11.4
05:35 1018 30.06 847 25.01 -9 15.8 83 -11.4 11.5
05:40 1018 30.06 847 25.01 -8.9 15.9 85 -11 12.1
05:45 1018 30.06 847 25.01 -8.2 17.2 80 -11.1 12.1
05:50 1018 30.06 847 25.01 -8.2 17.2 81 -11 12.2
05:55 1018 30.06 847 25.01 -7.9 17.7 80 -10.8 12.6
06:00 1018 30.06 847 25.01 -7.7 18.2 79 -10.7 12.7
06:05 1018 30.06 847 25.01 -7.7 18.1 79 -10.7 12.7
06:10 1018 30.06 847 25.01 -7.7 18.2 79 -10.7 12.7
06:15 1018 30.06 847 25.01 -7.7 18.2 79 -10.7 12.7
06:20 1017 30.03 847 25.01 -7.6 18.3 79 -10.6 12.9
06:25 1017 30.03 847 25.01 -7.5 18.5 79 -10.6 13
06:30 1017 30.03 847 25.01 -7.4 18.7 78 -10.6 13
06:35 1017 30.03 847 25.01 -7.2 19 78 -10.5 13.1
06:40 1018 30.06 847 25.01 -7.1 19.2 79 -10.2 13.6
06:45 1018 30.06 847 25.01 -7.2 19.1 79 -10.2 13.6
06:50 1018 30.06 847 25.01 -7.2 19.1 80 -10 14
06:55 1018 30.06 847 25.01 -7.1 19.3 80 -10 14.1
07:00 1018 30.06 847 25.01 -6.9 19.6 80 -9.8 14.4
07:05 1018 30.06 847 25.01 -7.2 19 82 -9.8 14.3
07:10 1018 30.06 847 25.01 -7.6 18.4 83 -10 14
07:15 1018 30.06 847 25.01 -7.4 18.7 83 -9.9 14.3
07:20 1018 30.06 847 25.01 -7.4 18.7 84 -9.7 14.6
07:25 1018 30.06 847 25.01 -7.5 18.5 85 -9.7 14.6
07:30 1018 30.06 847 25.01 -7.6 18.3 87 -9.3 15.2
07:35 1018 30.06 847 25.01 -7.7 18.2 84 -9.9 14.2
07:40 1018 30.06 847 25.01 -7.8 18 84 -10 14
07:45 1018 30.06 847 25.01 -7.9 17.7 85 -10 13.9
07:50 1018 30.06 847 25.01 -8.1 17.4 86 -10.1 13.9
07:55 1018 30.06 847 25.01 -8 17.5 86 -10 13.9
08:00 1018 30.06 847 25.01 -8.1 17.5 86 -10 14
08:05 1018 30.06 847 25.01 -8.1 17.4 87 -9.9 14.2
08:10 1018 30.06 847 25.01 -8.2 17.3 87 -10 14
08:15 1018 30.06 847 25.01 -8.3 17 87 -10.1 13.9
08:20 1018 30.06 847 25.01 -8.4 16.9 88 -10.1 13.8
08:25 1018 30.06 847 25.01 -8.4 16.9 87 -10.1 13.8
08:30 1018 30.06 847 25.01 -8.3 17.1 87 -10.1 13.9
08:35 1018 30.06 847 25.01 -8.4 17 88 -10.1 13.9
08:40 1018 30.06 847 25.01 -8.3 17.1 86 -10.2 13.7
08:45 1018 30.06 847 25.01 -8.1 17.5 85 -10.1 13.7
08:50 1018 30.06 847 25.01 -7.9 17.8 85 -10 13.9
08:55 1017 30.03 847 25.01 -7.9 17.9 84 -10.1 13.8
09:00 1017 30.03 847 25.01 -7.6 18.2 84 -10 14.1
09:05 1017 30.03 847 25.01 -7.5 18.6 83 -9.8 14.3
09:10 1017 30.03 846 24.98 -7.5 18.4 84 -9.9 14.3
09:15 1017 30.03 846 24.98 -7.4 18.6 83 -9.9 14.2
09:20 1017 30.03 846 24.98 -7.3 18.8 83 -9.8 14.4
09:25 1017 30.03 846 24.98 -7.1 19.2 82 -9.7 14.6
09:30 1017 30.03 846 24.98 -7.1 19.3 81 -9.7 14.5
09:35 1017 30.03 846 24.98 -7 19.5 81 -9.7 14.5
09:40 1017 30.03 846 24.98 -6.8 19.7 81 -9.6 14.7
09:45 1017 30.03 847 25.01 -6.6 20.1 79 -9.7 14.6
09:50 1017 30.03 847 25.01 -6.4 20.4 79 -9.5 14.9
09:55 1017 30.03 847 25.01 -6.7 19.9 80 -9.5 14.8
10:00 1017 30.03 847 25.01 -6.6 20.1 81 -9.3 15.2
10:05 1017 30.03 847 25.01 -6.5 20.2 81 -9.3 15.2
10:10 1017 30.03 847 25.01 -6.5 20.3 81 -9.3 15.2
10:15 1017 30.03 847 25.01 -6.3 20.6 81 -9.1 15.6
10:20 1017 30.03 847 25.01 -6 21.1 79 -9 15.7
10:25 1017 30.03 847 25.01 -6.1 21.1 81 -8.9 16
10:30 1017 30.03 846 24.98 -6.4 20.5 82 -9 15.8
10:35 1017 30.03 846 24.98 -6.4 20.4 83 -8.9 15.9
10:40 1017 30.03 846 24.98 -6.5 20.4 83 -9 15.9
10:45 1017 30.03 847 25.01 -6.1 20.9 81 -8.9 16
10:50 1017 30.03 846 24.98 -5.6 21.9 78 -8.9 16
10:55 1017 30.03 846 24.98 -5.1 22.8 76 -8.7 16.3
11:00 1017 30.03 846 24.98 -4.9 23.2 75 -8.7 16.3
11:05 1017 30.03 847 25.01 -5.4 22.3 78 -8.7 16.4
11:10 1017 30.03 847 25.01 -5.5 22 78 -8.8 16.1
11:15 1017 30.03 847 25.01 -5.1 22.8 75 -8.9 16
11:20 1017 30.03 847 25.01 -5.1 22.8 76 -8.8 16.2
11:25 1017 30.03 847 25.01 -5.3 22.5 78 -8.6 16.6
11:30 1017 30.03 847 25.01 -5.1 22.8 76 -8.7 16.4
11:35 1017 30.03 847 25.01 -5.2 22.6 77 -8.7 16.4
11:40 1017 30.03 847 25.01 -5.4 22.4 77 -8.8 16.2
11:45 1017 30.03 847 25.01 -5.3 22.5 76 -8.8 16.1
11:50 1017 30.03 847 25.01 -4.8 23.3 74 -8.8 16.1
11:55 1017 30.03 847 25.01 -4.5 24 72 -8.7 16.3
12:00 1017 30.03 847 25.01 -4.1 24.6 72 -8.5 16.7
12:05 1017 30.03 847 25.01 -3.8 25.2 71 -8.3 17
12:10 1017 30.03 846 24.98 -3.6 25.6 70 -8.3 17.1
12:15 1017 30.03 846 24.98 -3.8 25.2 70 -8.5 16.6
12:20 1017 30.03 846 24.98 -3.9 25 69 -8.7 16.3
12:25 1017 30.03 846 24.98 -3.9 25.1 69 -8.7 16.4
12:30 1017 30.03 846 24.98 -3.9 25.1 70 -8.6 16.5
12:35 1017 30.03 846 24.98 -3.8 25.1 71 -8.3 17
12:40 1017 30.03 846 24.98 -3.8 25.2 72 -8.1 17.4
12:45 1017 30.03 846 24.98 -3.7 25.4 71 -8.2 17.2
12:50 1017 30.03 846 24.98 -3.6 25.6 71 -8.1 17.5
12:55 1017 30.03 846 24.98 -3.4 25.8 70 -8.2 17.2
13:00 1017 30.03 846 24.98 -3.5 25.7 69 -8.4 16.9
13:05 1017 30.03 846 24.98 -3.4 25.9 69 -8.3 17
13:10 1017 30.03 846 24.98 -3.5 25.6 70 -8.2 17.3
13:15 1016 30 846 24.98 -3.8 25.2 72 -8.1 17.4
13:20 1016 30 846 24.98 -3.9 25 73 -8.1 17.4
13:25 1016 30 846 24.98 -4 24.8 74 -8 17.6
13:30 1016 30 846 24.98 -4.2 24.5 74 -8.1 17.3
13:35 1016 30 846 24.98 -4.3 24.3 74 -8.2 17.2
13:40 1016 30 846 24.98 -4.1 24.7 73 -8.3 17.1
13:45 1016 30 845 24.95 -3.9 24.9 72 -8.2 17.3
13:50 1016 30 845 24.95 -3.6 25.6 71 -8.1 17.4
13:55 1016 30 845 24.95 -3.6 25.4 72 -8 17.7
14:00 1016 30 845 24.95 -3.6 25.6 71 -8.2 17.3
14:05 1016 30 845 24.95 -3.9 25 72 -8.2 17.3
14:10 1016 30 845 24.95 -3.9 25 72 -8.2 17.3
14:15 1016 30 845 24.95 -4 24.9 71 -8.6 16.6
14:20 1016 30 845 24.95 -3.9 25.1 72 -8.2 17.2
14:25 1016 30 845 24.95 -3.8 25.2 70 -8.5 16.6
14:30 1016 30 845 24.95 -3.7 25.4 69 -8.5 16.7
14:35 1016 30 845 24.95 -3.4 25.8 68 -8.5 16.7
14:40 1016 30 845 24.95 -3.1 26.3 68 -8.3 17.1
14:45 1016 30 845 24.95 -3 26.6 67 -8.2 17.2
14:50 1016 30 845 24.95 -2.9 26.8 67 -8.3 17.1
14:55 1016 30 845 24.95 -2.8 26.9 69 -7.8 18
15:00 1016 30 845 24.95 -2.7 27.1 69 -7.5 18.4
15:05 1016 30 845 24.95 -3 26.7 72 -7.3 18.8
15:10 1016 30 845 24.95 -2.8 26.9 70 -7.6 18.3
15:15 1016 30 845 24.95 -3.3 26.1 73 -7.4 18.6
15:20 1016 30 845 24.95 -3.5 25.8 74 -7.5 18.5
15:25 1016 30 845 24.95 -3.5 25.6 74 -7.5 18.4
15:30 1016 30 845 24.95 -3.7 25.4 74 -7.6 18.3
15:35 1016 30 845 24.95 -4 24.9 76 -7.5 18.5
15:40 1015 29.97 845 24.95 -4.1 24.6 77 -7.6 18.3
15:45 1016 30 845 24.95 -4 24.7 77 -7.4 18.6
15:50 1016 30 845 24.95 -3.8 25.1 76 -7.4 18.6
15:55 1016 30 845 24.95 -4.1 24.6 78 -7.4 18.7
16:00 1016 30 845 24.95 -4.1 24.7 78 -7.4 18.7
16:05 1016 30 845 24.95 -3.7 25.4 77 -7.2 19.1
16:10 1016 30 845 24.95 -3.4 25.8 76 -7.1 19.2
16:15 1016 30 845 24.95 -3.3 26 75 -7.1 19.2
16:20 1016 30 845 24.95 -3.3 26 76 -7.1 19.3
16:25 1016 30 845 24.95 -3.3 26 75 -7.2 19.1
16:30 1016 30 845 24.95 -3.5 25.7 76 -7.2 19.1
16:35 1016 30 845 24.95 -4 24.8 79 -7.1 19.1
16:40 1016 30 845 24.95 -4.2 24.5 80 -7.1 19.3
16:45 1016 30 845 24.95 -4 24.9 77 -7.4 18.7
16:50 1016 30 845 24.95 -4 24.8 78 -7.3 18.9
16:55 1016 30 845 24.95 -4.1 24.7 79 -7.2 19.1
17:00 1016 30 845 24.95 -4.1 24.6 80 -7 19.4
17:05 1016 30 845 24.95 -4 24.8 80 -7 19.4
17:10 1016 30 845 24.95 -3.9 24.9 79 -7.1 19.2
17:15 1016 30 845 24.95 -3.8 25.1 79 -7 19.4
17:20 1016 30 845 24.95 -3.8 25.2 80 -6.8 19.7
17:25 1016 30 845 24.95 -3.9 24.9 80 -6.8 19.7
17:30 1016 30 845 24.95 -4 24.8 81 -6.9 19.6
17:35 1016 30 845 24.95 -4 24.7 81 -6.8 19.7
17:40 1016 30 845 24.95 -4 24.8 80 -7 19.5
17:45 1016 30 845 24.95 -3.9 24.9 80 -6.9 19.5
17:50 1016 30 845 24.95 -4 24.7 80 -7 19.3
17:55 1016 30 845 24.95 -4.2 24.5 80 -7.1 19.3
18:00 1016 30 845 24.95 -4.2 24.5 81 -7 19.5
18:05 1016 30 845 24.95 -4.3 24.3 82 -6.9 19.6
18:10 1016 30 845 24.95 -4.3 24.2 83 -6.8 19.7
18:15 1016 30 845 24.95 -4.3 24.2 83 -6.8 19.7
18:20 1016 30 845 24.95 -4.3 24.2 83 -6.8 19.8
18:25 1016 30 845 24.95 -4.4 24.1 83 -6.9 19.7
18:30 1016 30 845 24.95 -4.4 24.1 83 -6.8 19.7
18:35 1016 30 845 24.95 -4.4 24.1 83 -6.9 19.7
18:40 1016 30 845 24.95 -4.4 24.1 82 -6.9 19.5
18:45 1016 30 845 24.95 -4.4 24.1 82 -7 19.4
18:50 1016 30 845 24.95 -4.4 24.1 82 -7 19.3
18:55 1016 30 845 24.95 -4.4 24.1 82 -7.1 19.2
19:00 1016 30 845 24.95 -4.5 23.9 83 -7 19.4
19:05 1016 30 845 24.95 -4.6 23.7 83 -7.1 19.2
19:10 1016 30 845 24.95 -4.7 23.6 83 -7.1 19.2
19:15 1016 30 845 24.95 -4.7 23.5 83 -7.2 19.1
19:20 1016 30 845 24.95 -4.7 23.5 84 -7.1 19.2
19:25 1016 30 845 24.95 -4.7 23.6 83 -7.2 19
19:30 1016 30 845 24.95 -4.8 23.3 83 -7.3 18.9
19:35 1016 30 845 24.95 -4.9 23.1 83 -7.4 18.7
19:40 1016 30 845 24.95 -4.9 23.2 83 -7.4 18.7
19:45 1016 30 845 24.95 -4.9 23.2 83 -7.4 18.7
19:50 1016 30 845 24.95 -4.9 23.3 83 -7.3 18.9
19:55 1016 30 845 24.95 -4.8 23.3 83 -7.3 18.9
20:00 1016 30 845 24.95 -4.8 23.3 84 -7.1 19.3
20:05 1016 30 845 24.95 -4.8 23.3 85 -7 19.3
20:10 1016 30 845 24.95 -4.8 23.4 85 -7 19.4
20:15 1016 30 845 24.95 -4.8 23.3 84 -7.1 19.3
20:20 1016 30 845 24.95 -4.8 23.3 85 -7 19.4
20:25 1016 30 845 24.95 -4.9 23.2 86 -6.9 19.6
20:30 1016 30 845 24.95 -4.9 23.2 87 -6.8 19.7
20:35 1016 30 845 24.95 -5 23.1 86 -6.9 19.5
20:40 1016 30 845 24.95 -5.1 22.9 87 -7 19.5
20:45 1016 30 845 24.95 -5.1 22.9 86 -7 19.4
20:50 1016 30 845 24.95 -5 22.9 86 -7 19.4
20:55 1016 30 845 24.95 -5 22.9 87 -6.9 19.5
21:00 1016 30 845 24.95 -5 23 86 -7 19.4
21:05 1016 30 845 24.95 -5 23 86 -7 19.4
21:10 1016 30 845 24.95 -4.9 23.2 85 -7.1 19.3
21:15 1016 30 845 24.95 -4.8 23.3 85 -7 19.4
21:20 1016 30 845 24.95 -4.8 23.3 85 -7 19.5
21:25 1016 30 845 24.95 -4.7 23.5 85 -6.9 19.6
21:30 1016 30 845 24.95 -4.6 23.8 85 -6.7 19.9
21:35 1016 30 845 24.95 -4.5 23.8 84 -6.8 19.7
21:40 1016 30 845 24.95 -4.5 23.8 84 -6.9 19.7
21:45 1016 30 845 24.95 -4.5 23.9 84 -6.8 19.7
21:50 1016 30 845 24.95 -4.4 24.1 83 -6.8 19.7
21:55 1016 30 845 24.95 -4.3 24.2 83 -6.8 19.8
22:00 1016 30 845 24.95 -4.2 24.4 83 -6.7 19.9
22:05 1016 30 845 24.95 -4.2 24.5 83 -6.6 20.1
22:10 1016 30 845 24.95 -4.2 24.4 83 -6.7 20
22:15 1016 30 845 24.95 -4.2 24.4 84 -6.6 20.2
22:20 1016 30 845 24.95 -4.2 24.5 83 -6.6 20.2
22:25 1016 30 845 24.95 -4.3 24.3 84 -6.7 20
22:30 1016 30 845 24.95 -4.4 24.1 84 -6.6 20
22:35 1016 30 845 24.95 -4.4 24 85 -6.6 20.2
22:40 1016 30 845 24.95 -4.4 24.1 85 -6.6 20.1
22:45 1016 30 845 24.95 -4.4 24.1 85 -6.6 20.1
22:50 1016 30 845 24.95 -4.4 24.1 86 -6.5 20.4
22:55 1016 30 845 24.95 -4.4 24 86 -6.4 20.4
23:00 1016 30 845 24.95 -4.4 24 85 -6.5 20.3
23:05 1016 30 845 24.95 -4.4 24.1 85 -6.5 20.3
23:10 1016 30 845 24.95 -4.3 24.2 86 -6.4 20.5
23:15 1016 30 845 24.95 -4.4 24.1 86 -6.3 20.6
23:20 1016 30 845 24.95 -4.4 24.1 87 -6.3 20.7
23:25 1016 30 845 24.95 -4.4 24.1 87 -6.2 20.8
23:30 1016 30 845 24.95 -4.4 24.1 88 -6.1 20.9
23:35 1016 30 845 24.95 -4.4 24.1 87 -6.2 20.8
23:40 1016 30 845 24.95 -4.4 24 88 -6.2 20.9
23:45 1016 30 845 24.95 -4.5 23.9 88 -6.3 20.7
23:50 1016 30 845 24.95 -4.6 23.7 88 -6.3 20.6
23:55 1016 30 845 24.95 -4.6 23.7 87 -6.4 20.5
24:00 1016 30 845 24.95 -4.6 23.7 86 -6.6 20.1